Time;durP1;ratioP1;P1;durP2;ratioP2;P2;SDS_P1;SDS_P2;PMS_P1;PMS_P2;Temp;Humidity;BMP_temperature;BMP_pressure;BME280_temperature;BME280_humidity;BME280_pressure;Samples;Min_cycle;Max_cycle;Signal;HPM_P1;HPM_P2
2022/10/19 00:01:50;;;;;;;19.05;7.95;;;;;;;13.93;77.49;101349.72;4950850;28;20594;-76
2022/10/19 00:04:16;;;;;;;18.65;7.38;;;;;;;13.88;77.65;101349.22;4950566;28;20059;-76
2022/10/19 00:06:41;;;;;;;46.00;8.50;;;;;;;13.90;77.60;101346.41;4950663;28;20043;-75
2022/10/19 00:09:10;;;;;;;12.45;7.15;;;;;;;13.81;77.65;101337.22;4950733;29;20027;-75
2022/10/19 00:11:39;;;;;;;17.73;8.50;;;;;;;13.82;78.12;101341.63;4950712;28;20467;-75
2022/10/19 00:14:05;;;;;;;17.05;6.25;;;;;;;13.83;78.59;101340.66;4951406;28;20031;-74
2022/10/19 00:16:35;;;;;;;21.38;6.05;;;;;;;13.71;78.76;101314.63;4955104;28;20407;-75
2022/10/19 00:19:03;;;;;;;10.25;6.15;;;;;;;13.88;78.83;101335.69;4954680;28;20105;-75
2022/10/19 00:21:29;;;;;;;21.42;7.57;;;;;;;13.93;78.93;101340.75;4954767;29;20035;-76
2022/10/19 00:23:54;;;;;;;18.33;6.65;;;;;;;13.94;79.26;101323.53;4955758;29;20031;-75
2022/10/19 00:26:20;;;;;;;42.58;8.32;;;;;;;13.98;79.24;101323.13;4962418;28;20107;-75
2022/10/19 00:28:46;;;;;;;13.63;6.40;;;;;;;13.98;79.23;101304.19;4962857;28;20031;-76
2022/10/19 00:31:16;;;;;;;20.90;9.27;;;;;;;13.98;79.25;101295.22;4957317;29;20031;-75
2022/10/19 00:33:45;;;;;;;21.40;7.60;;;;;;;14.03;79.32;101306.53;4954462;28;20039;-74
2022/10/19 00:36:28;;;;;;;15.45;6.25;;;;;;;14.03;79.24;101304.69;4954359;28;20023;-75
2022/10/19 00:38:54;;;;;;;13.93;6.18;;;;;;;13.97;79.11;101294.38;4954584;29;20035;-75
2022/10/19 00:41:21;;;;;;;18.70;6.60;;;;;;;14.01;78.80;101289.56;4954160;28;20809;-75
2022/10/19 00:43:54;;;;;;;18.52;6.53;;;;;;;13.99;78.48;101294.25;4954136;28;20122;-75
2022/10/19 00:46:21;;;;;;;22.50;7.47;;;;;;;13.91;78.04;101286.75;4956354;29;20164;-77
2022/10/19 00:48:46;;;;;;;26.65;7.05;;;;;;;13.92;77.46;101285.78;4955217;28;20031;-75
2022/10/19 00:51:12;;;;;;;15.63;7.00;;;;;;;13.89;76.91;101275.22;4954316;28;20077;-75
2022/10/19 00:53:38;;;;;;;16.20;7.43;;;;;;;13.94;76.81;101277.56;4954460;28;20466;-74
2022/10/19 00:56:09;;;;;;;25.02;8.50;;;;;;;13.92;76.39;101274.97;4954177;28;20055;-77
2022/10/19 00:58:35;;;;;;;36.45;9.13;;;;;;;13.90;76.14;101270.69;4954414;29;20087;-75
2022/10/19 01:01:03;;;;;;;88.88;11.50;;;;;;;13.86;76.16;101275.50;4954176;28;20035;-75
2022/10/19 01:03:28;;;;;;;24.48;9.00;;;;;;;13.86;76.04;101274.63;4954243;28;20030;-76
2022/10/19 01:05:54;;;;;;;14.13;7.25;;;;;;;13.80;75.83;101265.19;4954098;29;20031;-76
2022/10/19 01:08:20;;;;;;;16.63;8.48;;;;;;;13.74;75.66;101260.31;4953718;28;20032;-74
2022/10/19 01:11:10;;;;;;;23.02;8.10;;;;;;;13.59;75.62;101248.09;4953575;28;20509;-76
2022/10/19 01:14:13;;;;;;;12.48;7.82;;;;;;;13.73;75.61;101266.69;4953834;28;20083;-75
2022/10/19 01:16:53;;;;;;;290.60;21.42;;;;;;;13.68;75.48;101258.13;4953531;29;20031;-75
2022/10/19 01:19:49;;;;;;;101.22;11.82;;;;;;;13.64;75.27;101253.94;4953428;28;20023;-76
2022/10/19 01:22:32;;;;;;;30.10;9.10;;;;;;;13.64;75.39;101253.94;4953405;29;20035;-74
2022/10/19 01:25:23;;;;;;;49.25;9.48;;;;;;;13.55;75.52;101249.31;4953231;28;20518;-75
2022/10/19 01:27:48;;;;;;;17.77;8.48;;;;;;;13.46;75.38;101248.25;4953263;28;20451;-75
2022/10/19 01:30:46;;;;;;;14.27;7.97;;;;;;;13.45;75.65;101243.00;4953421;28;20059;-74
2022/10/19 01:33:30;;;;;;;14.32;9.18;;;;;;;13.49;75.56;101236.31;4893946;29;20464;-75
2022/10/19 01:36:13;;;;;;;111.63;20.10;;;;;;;13.44;75.84;101231.31;4893618;29;20036;-76
2022/10/19 01:38:47;;;;;;;58.25;25.25;;;;;;;13.45;76.12;101243.00;4901086;29;20037;-76
2022/10/19 01:41:17;;;;;;;50.22;28.17;;;;;;;13.42;76.92;101227.88;4902716;29;20042;-75
2022/10/19 01:44:00;;;;;;;66.40;35.65;;;;;;;13.44;77.67;101225.06;4900578;29;20095;-76
2022/10/19 01:46:35;;;;;;;53.75;35.15;;;;;;;13.41;78.04;101218.06;4893828;29;20032;-75
2022/10/19 01:49:27;;;;;;;60.53;34.33;;;;;;;13.42;78.07;101222.47;4893522;29;20044;-77
2022/10/19 01:51:57;;;;;;;62.30;35.93;;;;;;;13.38;78.50;101225.56;4893021;29;20036;-75
2022/10/19 01:54:27;;;;;;;60.15;37.22;;;;;;;13.38;78.81;101214.75;4893510;29;20280;-75
2022/10/19 01:56:56;;;;;;;77.15;40.05;;;;;;;13.38;78.89;101212.91;4893050;29;20049;-74
2022/10/19 01:59:22;;;;;;;73.90;37.72;;;;;;;13.21;79.39;101177.50;4893110;29;20033;-74
2022/10/19 02:01:50;;;;;;;57.25;36.72;;;;;;;13.40;79.51;101201.97;4893292;29;20048;-75
2022/10/19 02:04:18;;;;;;;53.58;33.25;;;;;;;13.40;79.81;101193.88;4893102;29;20033;-74
2022/10/19 02:06:44;;;;;;;42.90;28.38;;;;;;;13.42;79.78;101200.84;4893199;29;20119;-75
2022/10/19 02:09:16;;;;;;;36.25;22.83;;;;;;;13.43;79.78;101207.13;4931931;29;20522;-76
2022/10/19 02:11:58;;;;;;;35.78;23.85;;;;;;;13.19;79.83;101168.66;4952433;29;20024;-75
2022/10/19 02:14:30;;;;;;;32.05;20.77;;;;;;;13.41;79.90;101198.28;4954193;28;20032;-75
2022/10/19 02:17:05;;;;;;;39.42;17.70;;;;;;;13.44;80.34;101200.72;4952766;28;20082;-75
2022/10/19 02:19:30;;;;;;;24.00;16.02;;;;;;;13.44;79.95;101187.22;4952608;28;20055;-76
2022/10/19 02:21:56;;;;;;;70.40;16.42;;;;;;;13.40;79.45;101191.16;4950958;29;20095;-76
2022/10/19 02:24:22;;;;;;;34.63;15.23;;;;;;;13.43;79.64;101191.75;4950173;29;20154;-75
2022/10/19 02:26:48;;;;;;;26.90;15.55;;;;;;;13.37;79.48;101183.31;4952578;28;20106;-74
2022/10/19 02:29:14;;;;;;;30.55;15.32;;;;;;;13.31;79.49;101186.53;4952500;29;20062;-76
2022/10/19 02:31:40;;;;;;;25.88;14.55;;;;;;;13.24;79.23;101185.34;4952581;28;20167;-75
2022/10/19 02:34:06;;;;;;;83.18;16.77;;;;;;;13.26;79.15;101183.38;4952146;28;20114;-75
2022/10/19 02:36:31;;;;;;;118.88;18.02;;;;;;;13.21;79.48;101180.22;4951822;28;20024;-76
2022/10/19 02:38:57;;;;;;;27.38;12.32;;;;;;;13.18;79.43;101180.47;4951664;28;20037;-75
2022/10/19 02:41:35;;;;;;;31.67;12.85;;;;;;;13.15;79.96;101186.13;4952365;28;20023;-74
2022/10/19 02:44:30;;;;;;;24.95;13.07;;;;;;;13.15;80.27;101191.53;4950748;29;20069;-75
2022/10/19 02:47:04;;;;;;;20.13;12.52;;;;;;;13.12;80.54;101191.78;4930162;29;20130;-75
2022/10/19 02:49:33;;;;;;;18.27;12.30;;;;;;;13.11;80.90;101190.06;4930157;29;20047;-75
2022/10/19 02:52:01;;;;;;;18.63;12.30;;;;;;;12.87;80.47;101150.53;4931463;29;20035;-75
2022/10/19 02:54:27;;;;;;;26.33;12.70;;;;;;;13.09;80.12;101171.25;4935837;29;20508;-76
2022/10/19 02:56:53;;;;;;;23.17;14.32;;;;;;;13.12;79.61;101183.69;4940703;29;20067;-75
2022/10/19 02:59:18;;;;;;;24.70;13.40;;;;;;;13.11;79.28;101184.66;4915775;29;20836;-75
2022/10/19 03:01:44;;;;;;;25.30;15.27;;;;;;;13.07;79.24;101178.59;4929865;29;20419;-74
2022/10/19 03:04:09;;;;;;;27.98;15.75;;;;;;;12.86;78.47;101151.53;4929697;29;20036;-75
2022/10/19 03:06:35;;;;;;;40.35;18.08;;;;;;;12.94;78.07;101176.06;4930070;29;20533;-74
2022/10/19 03:09:00;;;;;;;76.32;19.23;;;;;;;12.85;78.06;101171.41;4929863;29;20028;-75
2022/10/19 03:11:25;;;;;;;26.67;15.05;;;;;;;12.89;77.88;101175.59;4929936;29;20123;-76
2022/10/19 03:13:51;;;;;;;28.05;15.27;;;;;;;12.69;76.91;101138.56;4929985;29;20039;-75
2022/10/19 03:16:17;;;;;;;27.65;15.60;;;;;;;12.79;77.31;101166.53;4929785;29;20031;-75
2022/10/19 03:18:42;;;;;;;30.55;17.42;;;;;;;12.71;76.85;101155.50;4929888;29;20119;-76
2022/10/19 03:21:10;;;;;;;26.52;17.48;;;;;;;12.57;76.83;101136.88;4929618;29;20032;-75
2022/10/19 03:23:36;;;;;;;33.17;17.67;;;;;;;12.58;76.47;101149.38;4923336;29;20041;-75
2022/10/19 03:26:02;;;;;;;34.05;19.33;;;;;;;12.39;76.76;101149.16;4951549;28;20023;-76
2022/10/19 03:28:28;;;;;;;36.05;20.52;;;;;;;12.40;76.78;101156.28;4951359;28;20818;-75
2022/10/19 03:30:54;;;;;;;34.47;20.58;;;;;;;12.32;76.81;101148.78;4951403;28;20114;-76
2022/10/19 03:33:19;;;;;;;35.75;21.80;;;;;;;12.15;77.14;101130.41;4951758;28;20216;-77
2022/10/19 03:35:45;;;;;;;34.83;22.13;;;;;;;12.21;76.57;101150.63;4951314;28;20122;-76
2022/10/19 03:38:10;;;;;;;25.83;21.98;;;;;;;12.19;77.21;101147.22;4951314;28;20030;-74
2022/10/19 03:40:36;;;;;;;34.20;20.10;;;;;;;12.11;77.20;101144.28;4934078;29;20503;-76
2022/10/19 03:43:02;;;;;;;42.92;22.77;;;;;;;12.10;77.46;101143.41;4951785;29;20032;-75
2022/10/19 03:45:27;;;;;;;37.63;23.10;;;;;;;12.07;76.82;101149.06;4951022;28;20041;-76
2022/10/19 03:47:53;;;;;;;31.77;23.88;;;;;;;11.87;76.82;101130.88;4951107;28;20066;-75
2022/10/19 03:50:19;;;;;;;96.20;27.13;;;;;;;11.89;77.21;101143.28;4950138;28;20031;-74
2022/10/19 03:52:45;;;;;;;74.20;26.90;;;;;;;11.74;77.28;101144.44;4949654;29;20126;-75
2022/10/19 03:55:11;;;;;;;37.13;27.98;;;;;;;11.61;77.58;101146.38;4950761;28;20487;-75
2022/10/19 03:57:36;;;;;;;64.10;29.10;;;;;;;11.46;78.07;101137.66;4951126;28;20019;-76
2022/10/19 04:00:06;;;;;;;95.80;28.35;;;;;;;11.40;78.68;101137.25;4950596;29;20460;-76
2022/10/19 04:02:31;;;;;;;42.13;25.02;;;;;;;11.39;78.63;101141.78;4950741;28;20114;-76
2022/10/19 04:04:57;;;;;;;56.05;26.35;;;;;;;11.33;79.06;101125.22;4950854;28;20028;-76
2022/10/19 04:07:22;;;;;;;41.40;26.15;;;;;;;11.35;78.90;101131.34;4955772;28;20055;-75
2022/10/19 04:09:48;;;;;;;98.43;28.42;;;;;;;11.33;79.06;101126.09;4963057;28;20118;-75
2022/10/19 04:12:13;;;;;;;36.10;26.55;;;;;;;11.19;78.84;101106.59;4963037;28;20115;-76
2022/10/19 04:14:38;;;;;;;45.97;26.67;;;;;;;11.14;79.29;101104.22;4952523;28;20109;-76
2022/10/19 04:17:04;;;;;;;143.30;30.95;;;;;;;11.36;79.14;101135.75;4950504;28;20086;-74
2022/10/19 04:19:31;;;;;;;310.45;40.63;;;;;;;11.30;79.45;101118.25;4950678;29;20042;-74
2022/10/19 04:21:57;;;;;;;114.32;32.97;;;;;;;11.38;79.39;101123.03;4950296;28;20450;-74
2022/10/19 04:24:22;;;;;;;57.13;28.48;;;;;;;11.27;80.00;101096.94;4950590;28;20070;-75
2022/10/19 04:26:50;;;;;;;209.80;33.65;;;;;;;11.45;80.31;101126.97;4950269;28;20038;-74
2022/10/19 04:29:18;;;;;;;225.95;35.45;;;;;;;11.53;79.91;101124.53;4927632;29;20047;-74
2022/10/19 04:31:44;;;;;;;93.18;30.23;;;;;;;11.56;79.77;101126.16;4949715;28;20062;-77
2022/10/19 04:34:10;;;;;;;93.65;31.10;;;;;;;11.52;79.76;101120.16;4949238;28;20070;-77
2022/10/19 04:36:36;;;;;;;85.28;32.40;;;;;;;11.56;80.47;101121.59;4949023;28;20503;-78
2022/10/19 04:39:02;;;;;;;180.13;40.20;;;;;;;11.45;80.88;101091.97;4949569;28;20079;-76
2022/10/19 04:41:27;;;;;;;227.15;41.60;;;;;;;11.60;81.75;101112.31;4949338;28;20102;-75
2022/10/19 04:43:56;;;;;;;133.95;43.03;;;;;;;11.49;81.60;101093.44;4946191;29;20039;-76
2022/10/19 04:46:21;;;;;;;139.93;44.28;;;;;;;11.47;82.70;101081.91;4946343;29;20043;-77
2022/10/19 04:48:47;;;;;;;156.57;63.05;;;;;;;11.61;83.34;101105.09;4945901;29;20121;-76
2022/10/19 04:51:14;;;;;;;161.40;49.10;;;;;;;11.42;82.62;101071.50;4946757;29;20059;-77
2022/10/19 04:53:41;;;;;;;132.85;53.58;;;;;;;11.37;82.54;101070.16;4930151;29;20531;-78
2022/10/19 04:56:10;;;;;;;215.18;62.72;;;;;;;11.62;83.36;101104.97;4946389;28;20520;-76
2022/10/19 04:58:35;;;;;;;223.85;60.80;;;;;;;11.71;83.06;101106.13;4930188;29;20046;-75
2022/10/19 05:01:12;;;;;;;151.52;55.92;;;;;;;11.48;83.10;101045.94;4948245;28;20031;-74
2022/10/19 05:03:38;;;;;;;128.43;53.63;;;;;;;11.79;82.51;101101.84;4949369;29;20043;-75
2022/10/19 05:06:05;;;;;;;120.82;53.47;;;;;;;11.78;82.65;101102.81;4949982;29;20098;-75
2022/10/19 05:08:31;;;;;;;144.80;49.97;;;;;;;11.57;83.26;101064.06;4951255;29;20035;-75
2022/10/19 05:11:05;;;;;;;110.97;49.47;;;;;;;11.72;83.01;101091.66;4950006;29;20035;-74
2022/10/19 05:13:31;;;;;;;119.18;48.30;;;;;;;11.62;83.11;101067.25;4950050;29;20039;-75
2022/10/19 05:15:59;;;;;;;78.65;43.25;;;;;;;11.82;82.39;101101.59;4952401;29;20065;-75
2022/10/19 05:18:25;;;;;;;96.93;41.47;;;;;;;11.75;82.01;101089.59;4952900;28;20163;-74
2022/10/19 05:20:50;;;;;;;153.55;44.10;;;;;;;11.81;82.43;101099.88;4955983;28;20059;-75
2022/10/19 05:23:16;;;;;;;92.95;41.53;;;;;;;11.81;82.21;101102.56;4965818;28;20015;-74
2022/10/19 05:25:42;;;;;;;83.15;44.70;;;;;;;11.66;81.94;101068.72;4972316;28;20565;-75
2022/10/19 05:28:07;;;;;;;74.40;40.45;;;;;;;11.91;82.27;101103.56;4957838;28;20039;-74
2022/10/19 05:30:33;;;;;;;161.38;44.45;;;;;;;11.83;82.40;101106.00;4952197;29;20031;-75
2022/10/19 05:32:58;;;;;;;86.15;38.85;;;;;;;11.95;81.96;101104.19;4952599;28;20035;-74
2022/10/19 05:35:23;;;;;;;81.03;39.53;;;;;;;11.99;82.03;101098.41;4952305;29;20407;-77
2022/10/19 05:37:58;;;;;;;624.38;270.15;;;;;;;12.14;81.54;101106.28;4952049;28;20410;-74
2022/10/19 05:40:23;;;;;;;126.25;58.92;;;;;;;12.16;81.18;101099.78;4952175;28;20435;-74
2022/10/19 05:42:49;;;;;;;325.20;146.45;;;;;;;12.31;81.84;101103.94;4950583;29;20043;-74
2022/10/19 05:45:14;;;;;;;124.35;70.10;;;;;;;12.40;81.22;101103.19;4951941;28;20438;-74
2022/10/19 05:47:40;;;;;;;116.88;54.75;;;;;;;12.22;81.23;101074.16;4951948;29;20034;-73
2022/10/19 05:50:05;;;;;;;359.45;67.78;;;;;;;12.52;80.60;101106.72;4950508;29;20035;-74
2022/10/19 05:52:31;;;;;;;100.30;48.65;;;;;;;12.66;80.17;101114.53;4951479;29;20077;-75
2022/10/19 05:54:57;;;;;;;127.75;46.13;;;;;;;12.66;79.84;101109.13;4951842;29;20106;-74
2022/10/19 05:57:23;;;;;;;233.77;51.00;;;;;;;12.80;79.28;101103.47;4951474;29;20081;-73
2022/10/19 05:59:48;;;;;;;106.90;47.17;;;;;;;12.72;78.97;101097.00;4951765;28;20061;-73
2022/10/19 06:02:14;;;;;;;110.65;58.22;;;;;;;12.72;78.97;101114.03;4950345;29;20387;-76
2022/10/19 06:04:39;;;;;;;72.13;44.90;;;;;;;12.78;79.15;101118.91;4951447;29;20042;-74
2022/10/19 06:07:04;;;;;;;92.38;43.67;;;;;;;12.81;79.37;101113.25;4951235;29;20396;-75
2022/10/19 06:09:34;;;;;;;59.53;34.80;;;;;;;12.77;79.27;101110.97;4951107;29;20027;-75
2022/10/19 06:12:00;;;;;;;135.85;49.65;;;;;;;12.89;79.40;101109.94;4950665;28;20110;-74
2022/10/19 06:14:26;;;;;;;102.50;35.22;;;;;;;12.94;79.21;101115.78;4951329;29;20440;-76
2022/10/19 06:16:51;;;;;;;84.30;32.67;;;;;;;12.94;79.04;101107.69;4952521;28;20490;-76
2022/10/19 06:19:17;;;;;;;124.78;34.72;;;;;;;13.00;78.58;101112.59;4951412;29;20027;-75
2022/10/19 06:21:44;;;;;;;60.33;30.27;;;;;;;12.85;78.71;101085.03;4951073;28;20035;-76
2022/10/19 06:24:09;;;;;;;76.45;47.10;;;;;;;13.05;78.78;101116.63;4951018;28;20118;-76
2022/10/19 06:26:35;;;;;;;156.85;52.78;;;;;;;12.86;78.46;101059.75;4917130;29;20479;-76
2022/10/19 06:29:01;;;;;;;92.60;35.35;;;;;;;13.11;79.21;101109.03;4950971;29;20042;-75
2022/10/19 06:31:29;;;;;;;339.65;58.58;;;;;;;13.24;78.88;101104.31;4951032;28;20051;-77
2022/10/19 06:33:54;;;;;;;57.30;26.13;;;;;;;13.18;78.32;101102.97;4956894;29;20031;-77
2022/10/19 06:36:23;;;;;;;113.05;29.65;;;;;;;13.28;77.79;101103.03;4960019;29;20038;-76
2022/10/19 06:38:49;;;;;;;55.60;23.70;;;;;;;13.26;77.32;101072.63;4958542;28;20046;-77
2022/10/19 06:41:15;;;;;;;31.42;20.10;;;;;;;13.51;77.05;101102.81;4955236;28;20415;-77
2022/10/19 06:43:42;;;;;;;41.42;20.70;;;;;;;13.57;76.41;101102.28;4949318;29;20400;-74
2022/10/19 06:46:10;;;;;;;63.47;21.08;;;;;;;13.46;76.12;101063.63;4950563;29;20035;-76
2022/10/19 06:48:36;;;;;;;68.72;21.67;;;;;;;13.53;76.24;101097.25;4950579;29;20031;-75
2022/10/19 06:51:04;;;;;;;42.00;20.52;;;;;;;13.65;76.03;101082.69;4950605;29;20058;-76
2022/10/19 06:53:33;;;;;;;60.20;34.67;;;;;;;13.58;75.83;101076.94;4950830;28;20031;-76
2022/10/19 06:55:59;;;;;;;42.42;23.48;;;;;;;13.55;75.83;101073.66;4950531;29;20078;-75
2022/10/19 06:58:25;;;;;;;58.47;31.80;;;;;;;13.66;75.51;101089.81;4950140;28;20035;-77
2022/10/19 07:00:55;;;;;;;46.83;24.98;;;;;;;13.60;75.61;101088.50;4950095;29;20046;-75
2022/10/19 07:03:22;;;;;;;214.65;47.30;;;;;;;13.65;75.76;101088.09;4949428;28;20027;-76
2022/10/19 07:06:02;;;;;;;59.35;33.03;;;;;;;13.67;75.91;101091.50;4949886;28;20035;-74
2022/10/19 07:08:30;;;;;;;52.35;25.38;;;;;;;13.76;76.23;101084.47;4950016;28;20027;-76
2022/10/19 07:10:57;;;;;;;46.25;28.40;;;;;;;13.74;76.74;101081.03;4950160;28;20050;-75
2022/10/19 07:13:25;;;;;;;41.08;27.40;;;;;;;13.79;76.30;101085.03;4950159;29;20035;-75
2022/10/19 07:15:59;;;;;;;37.55;26.58;;;;;;;13.77;76.23;101070.78;4950096;29;20039;-77
2022/10/19 07:18:25;;;;;;;46.45;25.52;;;;;;;13.78;75.98;101082.47;4950381;29;20058;-77
2022/10/19 07:20:56;;;;;;;46.67;24.38;;;;;;;13.73;76.14;101080.16;4950116;29;20027;-75
2022/10/19 07:23:21;;;;;;;36.63;23.48;;;;;;;13.73;76.57;101082.03;4948563;28;20023;-76
2022/10/19 07:25:47;;;;;;;39.90;23.70;;;;;;;13.50;76.56;101040.78;4950089;28;20035;-76
2022/10/19 07:28:12;;;;;;;50.22;24.63;;;;;;;13.72;76.91;101070.34;4949752;28;20065;-78
2022/10/19 07:30:38;;;;;;;35.15;23.38;;;;;;;13.74;76.95;101070.22;4950251;29;20109;-77
2022/10/19 07:33:03;;;;;;;47.58;23.05;;;;;;;13.74;77.18;101065.66;4949945;28;20868;-77
2022/10/19 07:35:29;;;;;;;36.40;21.38;;;;;;;13.83;76.97;101067.56;4950043;29;20483;-77
2022/10/19 07:37:54;;;;;;;30.50;19.35;;;;;;;13.88;77.21;101073.41;4949993;29;20684;-77
2022/10/19 07:40:20;;;;;;;43.83;22.17;;;;;;;13.97;77.17;101051.00;4950072;29;20027;-79
2022/10/19 07:42:45;;;;;;;53.30;24.92;;;;;;;14.10;77.06;101057.00;4950559;29;20027;-78
2022/10/19 07:45:11;;;;;;;41.67;19.52;;;;;;;14.13;76.91;101062.13;4949842;28;20526;-76
2022/10/19 07:47:36;;;;;;;44.80;22.38;;;;;;;14.24;76.71;101055.78;4940449;29;20050;-76
2022/10/19 07:50:02;;;;;;;33.30;20.00;;;;;;;14.30;76.50;101046.25;4965214;28;20031;-77
2022/10/19 07:52:27;;;;;;;43.92;21.65;;;;;;;14.34;76.49;101043.13;4965503;28;20038;-75
2022/10/19 07:54:54;;;;;;;36.92;19.92;;;;;;;14.36;76.40;101029.47;4951078;28;20046;-75
2022/10/19 07:57:21;;;;;;;34.58;21.35;;;;;;;14.42;76.62;101031.63;4948887;28;20468;-76
2022/10/19 07:59:46;;;;;;;60.72;21.85;;;;;;;14.52;76.65;101041.50;4949390;29;20063;-77
2022/10/19 08:02:16;;;;;;;47.75;23.15;;;;;;;14.56;75.91;101023.09;4950877;29;21871;-76
2022/10/19 08:04:42;;;;;;;44.22;22.02;;;;;;;14.48;75.89;101017.53;4954626;28;20106;-76
2022/10/19 08:07:08;;;;;;;45.55;21.73;;;;;;;14.54;76.06;101028.66;4950330;28;20031;-76
2022/10/19 08:09:34;;;;;;;50.28;23.58;;;;;;;14.57;76.26;101032.94;4949409;28;20034;-75
2022/10/19 08:12:00;;;;;;;48.85;24.65;;;;;;;14.60;76.52;101002.88;4949423;28;20042;-77
2022/10/19 08:14:25;;;;;;;455.38;60.63;;;;;;;14.63;76.27;100994.47;4949818;28;20108;-77
2022/10/19 08:16:50;;;;;;;172.57;36.97;;;;;;;14.98;75.54;101019.13;4949592;28;20110;-75
2022/10/19 08:19:16;;;;;;;74.35;32.30;;;;;;;15.08;74.79;101001.00;4948230;29;20027;-76
2022/10/19 08:21:44;;;;;;;134.65;37.47;;;;;;;15.23;74.47;101015.81;4948143;29;20043;-77
2022/10/19 08:24:11;;;;;;;72.97;30.85;;;;;;;15.37;74.27;101008.22;4949617;28;20038;-75
2022/10/19 08:26:37;;;;;;;103.45;32.95;;;;;;;15.43;73.81;101004.94;4949305;28;20031;-75
2022/10/19 08:29:14;;;;;;;80.28;34.58;;;;;;;15.63;73.25;101010.19;4949082;28;20111;-75
2022/10/19 08:31:42;;;;;;;85.88;37.05;;;;;;;15.77;72.48;101004.28;4949562;28;20070;-75
2022/10/19 08:34:11;;;;;;;97.68;40.85;;;;;;;15.89;72.16;101004.94;4949166;28;20463;-74
2022/10/19 08:36:36;;;;;;;163.07;40.67;;;;;;;15.85;72.07;100972.84;4952296;29;20036;-75
2022/10/19 08:39:04;;;;;;;120.43;41.63;;;;;;;16.09;71.01;100995.69;4952965;28;20495;-75
2022/10/19 08:41:33;;;;;;;113.85;42.22;;;;;;;16.15;70.73;100991.53;4953063;29;20038;-75
2022/10/19 08:44:36;;;;;;;109.18;42.35;;;;;;;16.30;70.63;100992.72;4953050;28;20495;-75
2022/10/19 08:47:21;;;;;;;97.57;42.22;;;;;;;16.29;69.99;100959.31;4953189;29;20034;-76
2022/10/19 08:49:47;;;;;;;106.82;45.72;;;;;;;16.60;69.75;100981.56;4952761;29;20126;-76
2022/10/19 08:52:20;;;;;;;300.40;62.47;;;;;;;16.76;69.40;100981.69;4953029;28;20151;-75
2022/10/19 08:54:45;;;;;;;113.22;47.08;;;;;;;16.96;68.55;100982.38;4953364;28;20035;-76
2022/10/19 08:57:52;;;;;;;112.10;46.40;;;;;;;17.02;67.89;100970.88;4953397;28;20411;-75
2022/10/19 09:00:41;;;;;;;112.72;47.13;;;;;;;17.28;67.41;100976.31;4954937;29;20062;-74
2022/10/19 09:03:59;;;;;;;104.03;47.45;;;;;;;17.40;66.09;100970.47;4956885;29;20053;-75
2022/10/19 09:06:40;;;;;;;139.43;47.25;;;;;;;17.44;65.48;100957.41;4916475;29;20092;-75
2022/10/19 09:09:12;;;;;;;133.57;62.90;;;;;;;17.66;65.10;100964.19;4911782;29;20036;-75
2022/10/19 09:11:43;;;;;;;99.30;41.25;;;;;;;17.78;64.47;100965.59;4911472;29;20095;-74
2022/10/19 09:14:32;;;;;;;88.15;38.53;;;;;;;18.02;63.44;100960.25;4911923;29;20678;-74
2022/10/19 09:17:01;;;;;;;88.93;39.33;;;;;;;18.15;62.75;100954.34;4879859;29;20047;-76
2022/10/19 09:19:28;;;;;;;91.45;38.20;;;;;;;18.36;62.53;100957.47;4912463;29;20024;-76
2022/10/19 09:21:59;;;;;;;72.43;33.05;;;;;;;18.55;61.55;100948.16;4881270;29;20496;-74
2022/10/19 09:24:57;;;;;;;60.88;32.90;;;;;;;18.67;60.42;100944.94;4912630;29;20062;-74
2022/10/19 09:27:28;;;;;;;62.75;30.58;;;;;;;18.81;59.86;100946.13;4911864;29;20480;-75
2022/10/19 09:29:56;;;;;;;69.32;29.77;;;;;;;18.81;59.02;100927.91;4913267;29;20080;-75
2022/10/19 09:32:28;;;;;;;70.32;30.83;;;;;;;18.70;59.25;100894.72;4913091;29;20429;-75
2022/10/19 09:34:57;;;;;;;56.42;27.02;;;;;;;18.78;58.45;100886.53;4912452;29;20051;-74
2022/10/19 09:37:23;;;;;;;44.92;24.88;;;;;;;19.21;58.11;100924.28;4896645;29;20126;-75
2022/10/19 09:39:50;;;;;;;54.60;25.60;;;;;;;19.25;57.34;100927.53;4927414;29;20590;-75
2022/10/19 09:42:32;;;;;;;43.13;24.75;;;;;;;19.36;56.68;100925.28;4953249;28;20062;-75
2022/10/19 09:45:00;;;;;;;42.13;23.27;;;;;;;19.31;56.42;100899.56;4952805;28;20427;-75
2022/10/19 09:47:41;;;;;;;56.80;23.52;;;;;;;19.52;56.35;100916.25;4951857;28;20102;-75
2022/10/19 09:50:24;;;;;;;45.75;19.73;;;;;;;19.69;55.47;100911.59;4953126;28;20123;-76
2022/10/19 09:52:55;;;;;;;31.77;18.10;;;;;;;19.75;55.09;100902.69;4953289;28;20495;-76
2022/10/19 09:55:35;;;;;;;24.70;14.88;;;;;;;19.81;54.53;100900.09;4952665;28;20134;-74
2022/10/19 09:58:02;;;;;;;37.33;16.40;;;;;;;19.99;53.89;100905.31;4952554;29;20067;-75
2022/10/19 10:00:46;;;;;;;48.30;15.70;;;;;;;20.09;53.24;100903.16;4952612;28;20036;-75
2022/10/19 10:03:34;;;;;;;29.00;13.02;;;;;;;20.21;52.82;100890.84;4952666;28;20444;-76
2022/10/19 10:06:05;;;;;;;57.38;12.45;;;;;;;20.27;52.17;100887.41;4952790;28;20031;-75
2022/10/19 10:08:36;;;;;;;28.02;12.60;;;;;;;20.40;51.41;100876.72;4952128;28;20467;-75
2022/10/19 10:11:13;;;;;;;168.88;21.77;;;;;;;20.48;50.31;100873.94;4952644;28;20399;-75
2022/10/19 10:13:42;;;;;;;216.32;29.25;;;;;;;20.62;50.01;100862.19;4952784;28;20027;-75
2022/10/19 10:16:14;;;;;;;126.80;17.70;;;;;;;20.79;48.45;100864.78;4957626;28;20087;-75
2022/10/19 10:18:52;;;;;;;31.17;9.32;;;;;;;20.88;48.05;100861.78;4957530;28;20031;-75
2022/10/19 10:21:23;;;;;;;34.88;8.43;;;;;;;20.98;47.52;100847.81;4954732;28;20098;-75
2022/10/19 10:24:05;;;;;;;42.60;8.20;;;;;;;21.00;47.03;100851.25;4952231;28;20118;-74
2022/10/19 10:26:37;;;;;;;16.58;6.45;;;;;;;20.96;47.33;100825.31;4952384;29;20032;-76
2022/10/19 10:29:14;;;;;;;319.77;37.10;;;;;;;21.27;46.88;100839.69;4952392;28;20038;-75
2022/10/19 10:31:41;;;;;;;43.22;10.52;;;;;;;21.31;46.95;100842.91;4951996;28;20270;-76
2022/10/19 10:34:29;;;;;;;19.73;7.53;;;;;;;21.35;46.15;100800.41;4952211;28;20535;-74
2022/10/19 10:36:56;;;;;;;55.97;8.63;;;;;;;21.65;46.09;100822.09;4951799;28;20491;-75
2022/10/19 10:39:23;;;;;;;18.65;8.50;;;;;;;21.74;45.48;100822.84;4951758;28;20031;-75
2022/10/19 10:41:49;;;;;;;14.30;7.85;;;;;;;21.89;45.06;100809.13;4951587;28;20031;-75
2022/10/19 10:44:32;;;;;;;49.15;10.05;;;;;;;21.96;44.42;100799.09;4951462;28;20165;-75
2022/10/19 10:46:59;;;;;;;;;;;;;;;22.06;44.61;100794.13;4952071;28;20495;-74
2022/10/19 10:49:32;;;;;;;25.27;6.85;;;;;;;22.19;44.33;100795.13;4951756;29;19964;-75
2022/10/19 10:52:26;;;;;;;64.10;6.30;;;;;;;22.38;42.44;100792.78;4949362;29;20786;-74
2022/10/19 10:54:59;;;;;;;56.20;6.50;;;;;;;22.57;41.83;100787.44;4891812;29;20055;-75
2022/10/19 10:57:29;;;;;;;42.83;7.18;;;;;;;22.72;41.31;100785.47;4893082;29;20640;-75
2022/10/19 11:00:22;;;;;;;19.00;4.93;;;;;;;22.87;41.41;100781.81;4892069;29;20424;-75
2022/10/19 11:03:15;;;;;;;155.80;11.38;;;;;;;22.86;40.73;100747.19;4836305;29;20420;-75
2022/10/19 11:05:45;;;;;;;266.98;23.27;;;;;;;23.22;40.02;100770.59;4836411;29;20170;-75
2022/10/19 11:08:10;;;;;;;1211.97;130.10;;;;;;;23.28;39.54;100733.25;4836372;29;20046;-76
2022/10/19 11:10:44;;;;;;;115.35;9.57;;;;;;;23.64;38.58;100761.31;4836727;29;20147;-76
2022/10/19 11:13:16;;;;;;;25.80;5.13;;;;;;;23.68;37.09;100757.09;4836172;29;20048;-76
2022/10/19 11:15:59;;;;;;;17.63;4.30;;;;;;;23.64;36.27;100744.84;4836392;29;20030;-75
2022/10/19 11:18:32;;;;;;;119.50;11.10;;;;;;;23.67;35.59;100746.31;4836227;29;20049;-75
2022/10/19 11:21:14;;;;;;;20.30;4.00;;;;;;;23.62;35.69;100733.22;4836193;29;20411;-76
2022/10/19 11:24:14;;;;;;;229.18;15.52;;;;;;;23.67;35.41;100746.31;4835815;29;20044;-75